Terminal Aerodrome Forecast
Issued by NWS Grand Rapids, MI

Home | Current Version | Previous Version | Text Only | Print | Product List | Glossary On
Versions: 1 2 3 4 5 6 7 8 9 10 11 12 13 14 15 16 17 18 19 20 21
000
FTUS43 KGRR 010600 AAA
TAFGRR
TAF AMD
KGRR 010647Z 0107/0206 18005KT 2SM -SN BR OVC040
     FM010900 17004KT 3SM -SN BR OVC025
     FM011600 22007KT P6SM OVC030=

USA.gov is the U.S. government's official web portal to all federal, state and local government web resources and services.